GRZ573 Details

Departure: (PADU)
Arrival: (PACD)
Route: DUT J115 CDB


Current Weather Information
PADU 171656Z 00000KT 1/4SM FG BKN000 OVC003 10/10 A3043 RMK AO2 SLP309 FG BKN000 T01000100
PACD 171653Z 34015KT 10SM FEW010 14/12 A3041 RMK AO2 SLP299 T01440122